sensor_id;sensor_type;location;lat;lon;timestamp;pressure;altitude;pressure_sealevel;temperature;humidity
6136;BME280;24008;42.664;23.372;2023-08-06T00:00:21;93676.28;;;18.30;100.00
6136;BME280;24008;42.664;23.372;2023-08-06T00:02:48;93635.88;;;18.11;100.00
6136;BME280;24008;42.664;23.372;2023-08-06T00:05:15;93628.25;;;17.97;100.00
6136;BME280;24008;42.664;23.372;2023-08-06T00:07:43;93680.66;;;18.29;100.00
6136;BME280;24008;42.664;23.372;2023-08-06T00:10:11;93659.34;;;18.34;100.00
6136;BME280;24008;42.664;23.372;2023-08-06T00:12:38;93642.06;;;18.10;100.00
6136;BME280;24008;42.664;23.372;2023-08-06T00:15:06;93699.66;;;18.17;100.00
6136;BME280;24008;42.664;23.372;2023-08-06T00:17:33;93677.50;;;18.03;100.00
6136;BME280;24008;42.664;23.372;2023-08-06T00:20:00;93635.63;;;17.94;100.00
6136;BME280;24008;42.664;23.372;2023-08-06T00:22:30;93672.88;;;18.11;100.00
6136;BME280;24008;42.664;23.372;2023-08-06T00:24:57;93646.06;;;17.81;100.00
6136;BME280;24008;42.664;23.372;2023-08-06T00:27:25;93668.63;;;17.98;100.00
6136;BME280;24008;42.664;23.372;2023-08-06T00:29:52;93502.09;;;16.88;100.00
6136;BME280;24008;42.664;23.372;2023-08-06T00:32:19;93655.94;;;17.90;100.00
6136;BME280;24008;42.664;23.372;2023-08-06T00:34:46;93652.75;;;17.88;100.00
6136;BME280;24008;42.664;23.372;2023-08-06T00:37:15;93655.13;;;17.90;100.00
6136;BME280;24008;42.664;23.372;2023-08-06T00:39:42;93642.41;;;17.88;100.00
6136;BME280;24008;42.664;23.372;2023-08-06T00:42:08;93644.44;;;17.86;100.00
6136;BME280;24008;42.664;23.372;2023-08-06T00:44:37;93648.44;;;17.82;100.00
6136;BME280;24008;42.664;23.372;2023-08-06T00:47:05;93638.91;;;17.83;100.00
6136;BME280;24008;42.664;23.372;2023-08-06T00:49:33;93645.66;;;17.84;100.00
6136;BME280;24008;42.664;23.372;2023-08-06T00:52:00;93639.50;;;17.85;100.00
6136;BME280;24008;42.664;23.372;2023-08-06T00:54:27;93567.47;;;17.39;100.00
6136;BME280;24008;42.664;23.372;2023-08-06T00:56:54;93637.41;;;17.69;100.00
6136;BME280;24008;42.664;23.372;2023-08-06T00:59:23;93558.66;;;17.21;100.00
6136;BME280;24008;42.664;23.372;2023-08-06T01:01:51;93592.53;;;17.63;100.00
6136;BME280;24008;42.664;23.372;2023-08-06T01:04:18;93580.81;;;17.60;100.00
6136;BME280;24008;42.664;23.372;2023-08-06T01:06:47;93591.22;;;17.79;100.00
6136;BME280;24008;42.664;23.372;2023-08-06T01:09:25;93560.34;;;17.59;100.00
6136;BME280;24008;42.664;23.372;2023-08-06T01:11:59;93591.72;;;17.87;100.00
6136;BME280;24008;42.664;23.372;2023-08-06T01:14:35;93597.94;;;17.86;100.00
6136;BME280;24008;42.664;23.372;2023-08-06T01:17:06;93588.69;;;17.97;100.00
6136;BME280;24008;42.664;23.372;2023-08-06T01:19:34;93541.09;;;17.55;100.00
6136;BME280;24008;42.664;23.372;2023-08-06T01:22:02;93595.94;;;18.07;100.00
6136;BME280;24008;42.664;23.372;2023-08-06T01:24:30;93574.81;;;18.10;100.00
6136;BME280;24008;42.664;23.372;2023-08-06T01:27:03;93567.88;;;18.10;100.00
6136;BME280;24008;42.664;23.372;2023-08-06T01:29:34;93573.38;;;18.14;100.00
6136;BME280;24008;42.664;23.372;2023-08-06T01:32:03;93585.19;;;18.10;100.00
6136;BME280;24008;42.664;23.372;2023-08-06T01:34:32;93515.91;;;17.75;100.00
6136;BME280;24008;42.664;23.372;2023-08-06T01:37:02;93494.75;;;17.60;100.00
6136;BME280;24008;42.664;23.372;2023-08-06T01:39:29;93575.75;;;18.15;100.00
6136;BME280;24008;42.664;23.372;2023-08-06T01:41:59;93574.16;;;18.14;100.00
6136;BME280;24008;42.664;23.372;2023-08-06T01:44:26;93562.19;;;18.20;100.00
6136;BME280;24008;42.664;23.372;2023-08-06T01:46:53;93563.56;;;18.22;100.00
6136;BME280;24008;42.664;23.372;2023-08-06T01:49:20;93559.19;;;18.23;100.00
6136;BME280;24008;42.664;23.372;2023-08-06T01:51:46;93558.31;;;18.29;100.00
6136;BME280;24008;42.664;23.372;2023-08-06T01:54:15;93542.81;;;18.11;100.00
6136;BME280;24008;42.664;23.372;2023-08-06T01:56:41;93563.63;;;18.34;100.00
6136;BME280;24008;42.664;23.372;2023-08-06T01:59:08;93560.03;;;18.35;100.00
6136;BME280;24008;42.664;23.372;2023-08-06T02:01:35;93522.97;;;18.05;100.00
6136;BME280;24008;42.664;23.372;2023-08-06T02:04:02;93528.41;;;18.15;100.00
6136;BME280;24008;42.664;23.372;2023-08-06T02:06:28;93529.63;;;18.12;100.00
6136;BME280;24008;42.664;23.372;2023-08-06T02:08:55;93532.59;;;18.16;100.00
6136;BME280;24008;42.664;23.372;2023-08-06T02:11:23;93511.78;;;18.11;100.00
6136;BME280;24008;42.664;23.372;2023-08-06T02:13:50;93536.19;;;18.33;100.00
6136;BME280;24008;42.664;23.372;2023-08-06T02:16:17;93550.25;;;18.37;100.00
6136;BME280;24008;42.664;23.372;2023-08-06T02:18:43;93559.47;;;18.33;100.00
6136;BME280;24008;42.664;23.372;2023-08-06T02:21:10;93557.28;;;18.30;100.00
6136;BME280;24008;42.664;23.372;2023-08-06T02:23:37;93565.69;;;18.25;100.00
6136;BME280;24008;42.664;23.372;2023-08-06T02:26:04;93570.53;;;18.22;100.00
6136;BME280;24008;42.664;23.372;2023-08-06T02:28:33;93577.28;;;18.23;100.00
6136;BME280;24008;42.664;23.372;2023-08-06T02:30:59;93548.81;;;18.05;100.00
6136;BME280;24008;42.664;23.372;2023-08-06T02:33:26;93578.03;;;18.23;100.00
6136;BME280;24008;42.664;23.372;2023-08-06T02:35:59;93509.75;;;17.94;100.00
6136;BME280;24008;42.664;23.372;2023-08-06T02:38:26;93549.75;;;18.10;100.00
6136;BME280;24008;42.664;23.372;2023-08-06T02:40:53;93549.81;;;17.85;100.00
6136;BME280;24008;42.664;23.372;2023-08-06T02:43:20;93598.53;;;18.07;100.00
6136;BME280;24008;42.664;23.372;2023-08-06T02:45:48;93599.94;;;18.03;100.00
6136;BME280;24008;42.664;23.372;2023-08-06T02:48:14;93544.59;;;17.67;100.00
6136;BME280;24008;42.664;23.372;2023-08-06T02:50:44;93601.09;;;18.07;100.00
6136;BME280;24008;42.664;23.372;2023-08-06T02:53:11;93581.78;;;18.09;100.00
6136;BME280;24008;42.664;23.372;2023-08-06T02:55:38;93569.06;;;18.08;100.00
6136;BME280;24008;42.664;23.372;2023-08-06T02:58:11;93569.06;;;18.08;100.00
6136;BME280;24008;42.664;23.372;2023-08-06T03:00:38;93507.00;;;17.71;100.00
6136;BME280;24008;42.664;23.372;2023-08-06T03:03:07;93454.19;;;17.42;100.00
6136;BME280;24008;42.664;23.372;2023-08-06T03:05:33;93554.28;;;17.96;100.00
6136;BME280;24008;42.664;23.372;2023-08-06T03:08:00;93542.28;;;18.02;100.00
6136;BME280;24008;42.664;23.372;2023-08-06T03:10:27;93538.75;;;17.96;100.00
6136;BME280;24008;42.664;23.372;2023-08-06T03:12:54;93427.16;;;17.45;100.00
6136;BME280;24008;42.664;23.372;2023-08-06T03:15:20;93512.75;;;17.91;100.00
6136;BME280;24008;42.664;23.372;2023-08-06T03:17:47;93478.09;;;17.56;100.00
6136;BME280;24008;42.664;23.372;2023-08-06T03:20:15;93507.72;;;17.78;100.00
6136;BME280;24008;42.664;23.372;2023-08-06T03:22:42;93513.47;;;17.80;100.00
6136;BME280;24008;42.664;23.372;2023-08-06T03:25:09;93496.25;;;17.74;100.00
6136;BME280;24008;42.664;23.372;2023-08-06T03:27:35;93491.50;;;17.71;100.00
6136;BME280;24008;42.664;23.372;2023-08-06T03:30:03;93566.91;;;17.86;100.00
6136;BME280;24008;42.664;23.372;2023-08-06T03:32:30;93571.63;;;17.89;100.00
6136;BME280;24008;42.664;23.372;2023-08-06T03:34:56;93582.25;;;17.99;100.00
6136;BME280;24008;42.664;23.372;2023-08-06T03:37:24;93549.06;;;17.78;100.00
6136;BME280;24008;42.664;23.372;2023-08-06T03:39:51;93577.53;;;17.96;100.00
6136;BME280;24008;42.664;23.372;2023-08-06T03:42:18;93558.88;;;17.94;100.00
6136;BME280;24008;42.664;23.372;2023-08-06T03:44:45;93537.81;;;17.91;100.00
6136;BME280;24008;42.664;23.372;2023-08-06T03:47:12;93271.69;;;16.07;100.00
6136;BME280;24008;42.664;23.372;2023-08-06T03:49:39;93567.16;;;17.78;100.00
6136;BME280;24008;42.664;23.372;2023-08-06T03:52:06;93579.25;;;17.84;100.00
6136;BME280;24008;42.664;23.372;2023-08-06T03:54:35;93549.78;;;17.67;100.00
6136;BME280;24008;42.664;23.372;2023-08-06T03:57:02;93559.81;;;17.75;100.00
6136;BME280;24008;42.664;23.372;2023-08-06T03:59:28;93563.75;;;17.84;100.00
6136;BME280;24008;42.664;23.372;2023-08-06T04:01:55;93576.97;;;17.94;100.00
6136;BME280;24008;42.664;23.372;2023-08-06T04:04:22;93533.91;;;17.63;100.00
6136;BME280;24008;42.664;23.372;2023-08-06T04:06:49;93607.91;;;18.01;100.00
6136;BME280;24008;42.664;23.372;2023-08-06T04:09:16;93585.56;;;17.88;100.00
6136;BME280;24008;42.664;23.372;2023-08-06T04:11:44;93603.63;;;18.13;100.00
6136;BME280;24008;42.664;23.372;2023-08-06T04:14:11;93576.69;;;18.03;100.00
6136;BME280;24008;42.664;23.372;2023-08-06T04:16:37;93584.88;;;18.18;100.00
6136;BME280;24008;42.664;23.372;2023-08-06T04:19:04;93563.63;;;18.16;100.00
6136;BME280;24008;42.664;23.372;2023-08-06T04:21:31;93511.88;;;17.79;100.00
6136;BME280;24008;42.664;23.372;2023-08-06T04:23:57;93563.63;;;18.16;100.00
6136;BME280;24008;42.664;23.372;2023-08-06T04:26:24;93571.66;;;18.26;100.00
6136;BME280;24008;42.664;23.372;2023-08-06T04:28:52;93565.63;;;18.32;100.00
6136;BME280;24008;42.664;23.372;2023-08-06T04:31:19;93562.03;;;18.33;100.00
6136;BME280;24008;42.664;23.372;2023-08-06T04:33:46;93559.00;;;18.36;100.00
6136;BME280;24008;42.664;23.372;2023-08-06T04:36:12;93561.53;;;18.43;100.00
6136;BME280;24008;42.664;23.372;2023-08-06T04:38:39;93547.59;;;18.44;100.00
6136;BME280;24008;42.664;23.372;2023-08-06T04:41:10;93549.97;;;18.45;100.00
6136;BME280;24008;42.664;23.372;2023-08-06T04:43:38;93540.41;;;18.46;100.00
6136;BME280;24008;42.664;23.372;2023-08-06T04:46:06;93529.97;;;18.52;100.00
6136;BME280;24008;42.664;23.372;2023-08-06T04:48:33;93499.44;;;18.43;100.00
6136;BME280;24008;42.664;23.372;2023-08-06T04:51:00;93514.72;;;18.62;100.00
6136;BME280;24008;42.664;23.372;2023-08-06T04:53:26;93461.75;;;18.35;100.00
6136;BME280;24008;42.664;23.372;2023-08-06T04:55:53;93507.78;;;18.75;100.00
6136;BME280;24008;42.664;23.372;2023-08-06T04:58:20;93480.66;;;18.65;100.00
6136;BME280;24008;42.664;23.372;2023-08-06T05:00:46;93502.00;;;18.91;100.00
6136;BME280;24008;42.664;23.372;2023-08-06T05:03:14;93503.41;;;19.17;100.00
6136;BME280;24008;42.664;23.372;2023-08-06T05:05:41;93507.50;;;19.48;100.00
6136;BME280;24008;42.664;23.372;2023-08-06T05:08:14;93461.28;;;19.21;100.00
6136;BME280;24008;42.664;23.372;2023-08-06T05:10:42;93508.19;;;19.43;100.00
6136;BME280;24008;42.664;23.372;2023-08-06T05:13:09;93514.41;;;19.54;100.00
6136;BME280;24008;42.664;23.372;2023-08-06T05:15:36;93499.88;;;19.53;100.00
6136;BME280;24008;42.664;23.372;2023-08-06T05:18:02;93534.47;;;19.70;100.00
6136;BME280;24008;42.664;23.372;2023-08-06T05:20:30;93533.91;;;19.68;100.00
6136;BME280;24008;42.664;23.372;2023-08-06T05:22:57;93533.78;;;19.63;100.00
6136;BME280;24008;42.664;23.372;2023-08-06T05:25:24;93519.25;;;19.62;100.00
6136;BME280;24008;42.664;23.372;2023-08-06T05:27:51;93464.34;;;19.18;100.00
6136;BME280;24008;42.664;23.372;2023-08-06T05:30:18;93506.91;;;19.46;100.00
6136;BME280;24008;42.664;23.372;2023-08-06T05:32:45;93518.13;;;19.58;100.00
6136;BME280;24008;42.664;23.372;2023-08-06T05:35:12;93524.88;;;19.82;100.00
6136;BME280;24008;42.664;23.372;2023-08-06T05:37:40;93493.00;;;20.73;100.00
6136;BME280;24008;42.664;23.372;2023-08-06T05:40:07;93501.06;;;21.89;100.00
6136;BME280;24008;42.664;23.372;2023-08-06T05:42:34;93461.94;;;22.44;100.00
6136;BME280;24008;42.664;23.372;2023-08-06T05:45:01;93482.25;;;23.23;96.61
6136;BME280;24008;42.664;23.372;2023-08-06T05:47:28;93504.50;;;23.67;90.64
6136;BME280;24008;42.664;23.372;2023-08-06T05:49:54;93506.22;;;24.36;87.01
6136;BME280;24008;42.664;23.372;2023-08-06T05:52:21;93514.81;;;25.04;82.54
6136;BME280;24008;42.664;23.372;2023-08-06T05:54:49;93511.72;;;25.78;78.14
6136;BME280;24008;42.664;23.372;2023-08-06T05:57:17;93517.00;;;26.63;73.89
6136;BME280;24008;42.664;23.372;2023-08-06T05:59:43;93486.94;;;27.04;69.11
6136;BME280;24008;42.664;23.372;2023-08-06T06:02:10;93509.44;;;27.05;67.34
6136;BME280;24008;42.664;23.372;2023-08-06T06:04:37;93492.00;;;26.11;69.12
6136;BME280;24008;42.664;23.372;2023-08-06T06:07:04;93524.97;;;26.22;69.23
6136;BME280;24008;42.664;23.372;2023-08-06T06:09:31;93507.50;;;26.77;66.93
6136;BME280;24008;42.664;23.372;2023-08-06T06:11:59;93517.50;;;27.58;63.16
6136;BME280;24008;42.664;23.372;2023-08-06T06:14:26;93544.53;;;28.45;59.33
6136;BME280;24008;42.664;23.372;2023-08-06T06:16:52;93547.47;;;29.10;56.99
6136;BME280;24008;42.664;23.372;2023-08-06T06:19:19;93558.41;;;29.55;55.28
6136;BME280;24008;42.664;23.372;2023-08-06T06:21:46;93553.09;;;29.92;52.84
6136;BME280;24008;42.664;23.372;2023-08-06T06:24:13;93373.53;;;28.93;49.53
6136;BME280;24008;42.664;23.372;2023-08-06T06:26:39;93572.50;;;30.29;48.37
6136;BME280;24008;42.664;23.372;2023-08-06T06:29:07;93571.97;;;29.81;49.55
6136;BME280;24008;42.664;23.372;2023-08-06T06:31:34;93529.19;;;28.52;52.63
6136;BME280;24008;42.664;23.372;2023-08-06T06:34:01;93572.19;;;27.80;55.81
6136;BME280;24008;42.664;23.372;2023-08-06T06:36:28;93515.56;;;26.31;58.77
6136;BME280;24008;42.664;23.372;2023-08-06T06:38:55;93581.34;;;25.69;61.35
6136;BME280;24008;42.664;23.372;2023-08-06T06:41:21;93591.31;;;24.84;64.55
6136;BME280;24008;42.664;23.372;2023-08-06T06:43:49;93580.50;;;24.13;68.04
6136;BME280;24008;42.664;23.372;2023-08-06T06:46:17;93544.69;;;23.66;71.58
6136;BME280;24008;42.664;23.372;2023-08-06T06:48:44;93592.50;;;25.19;67.78
6136;BME280;24008;42.664;23.372;2023-08-06T06:51:10;93592.75;;;26.59;62.59
6136;BME280;24008;42.664;23.372;2023-08-06T06:53:37;93562.19;;;27.43;58.14
6136;BME280;24008;42.664;23.372;2023-08-06T06:56:04;93571.66;;;28.64;54.86
6136;BME280;24008;42.664;23.372;2023-08-06T06:58:31;93601.75;;;29.62;51.72
6136;BME280;24008;42.664;23.372;2023-08-06T07:00:58;93560.72;;;30.07;49.85
6136;BME280;24008;42.664;23.372;2023-08-06T07:03:26;93607.34;;;29.93;49.28
6136;BME280;24008;42.664;23.372;2023-08-06T07:05:57;93567.63;;;28.96;51.08
6136;BME280;24008;42.664;23.372;2023-08-06T07:08:24;93597.94;;;29.12;51.01
6136;BME280;24008;42.664;23.372;2023-08-06T07:10:50;93626.00;;;29.78;50.46
6136;BME280;24008;42.664;23.372;2023-08-06T07:13:17;93625.41;;;30.32;49.12
6136;BME280;24008;42.664;23.372;2023-08-06T07:15:44;93620.59;;;30.80;47.68
6136;BME280;24008;42.664;23.372;2023-08-06T07:18:11;93607.41;;;30.80;46.29
6136;BME280;24008;42.664;23.372;2023-08-06T07:20:39;93639.84;;;30.54;46.31
6136;BME280;24008;42.664;23.372;2023-08-06T07:23:05;93624.75;;;29.57;48.77
6136;BME280;24008;42.664;23.372;2023-08-06T07:25:32;93625.47;;;29.20;48.76
6136;BME280;24008;42.664;23.372;2023-08-06T07:27:59;93634.63;;;28.75;49.27
6136;BME280;24008;42.664;23.372;2023-08-06T07:30:27;93626.13;;;28.35;49.79
6136;BME280;24008;42.664;23.372;2023-08-06T07:32:54;93573.81;;;28.05;48.45
6136;BME280;24008;42.664;23.372;2023-08-06T07:35:21;93642.31;;;28.47;48.36
6136;BME280;24008;42.664;23.372;2023-08-06T07:37:49;93614.53;;;28.89;47.44
6136;BME280;24008;42.664;23.372;2023-08-06T07:40:16;93641.59;;;29.74;44.97
6136;BME280;24008;42.664;23.372;2023-08-06T07:42:42;93642.75;;;30.20;44.35
6136;BME280;24008;42.664;23.372;2023-08-06T07:45:09;93646.22;;;30.66;42.87
6136;BME280;24008;42.664;23.372;2023-08-06T07:47:36;93619.63;;;30.63;42.47
6136;BME280;24008;42.664;23.372;2023-08-06T07:50:04;93621.31;;;30.86;41.83
6136;BME280;24008;42.664;23.372;2023-08-06T07:52:30;93614.97;;;31.01;41.06
6136;BME280;24008;42.664;23.372;2023-08-06T07:54:59;93637.25;;;31.22;40.04
6136;BME280;24008;42.664;23.372;2023-08-06T07:57:27;93641.50;;;31.45;40.79
6136;BME280;24008;42.664;23.372;2023-08-06T07:59:53;93648.25;;;31.52;40.75
6136;BME280;24008;42.664;23.372;2023-08-06T08:02:20;93625.56;;;31.87;39.49
6136;BME280;24008;42.664;23.372;2023-08-06T08:04:47;93635.47;;;32.03;38.76
6136;BME280;24008;42.664;23.372;2023-08-06T08:07:14;93576.84;;;31.79;37.76
6136;BME280;24008;42.664;23.372;2023-08-06T08:09:41;93583.19;;;31.56;40.74
6136;BME280;24008;42.664;23.372;2023-08-06T08:12:09;93585.06;;;31.41;38.76
6136;BME280;24008;42.664;23.372;2023-08-06T08:14:36;93572.56;;;31.47;40.34
6136;BME280;24008;42.664;23.372;2023-08-06T08:17:03;93630.59;;;31.38;40.77
6136;BME280;24008;42.664;23.372;2023-08-06T08:19:31;93613.75;;;30.20;42.87
6136;BME280;24008;42.664;23.372;2023-08-06T08:21:58;93608.31;;;29.22;45.77
6136;BME280;24008;42.664;23.372;2023-08-06T08:24:25;93625.69;;;28.76;47.31
6136;BME280;24008;42.664;23.372;2023-08-06T08:26:52;93564.16;;;28.53;48.42
6136;BME280;24008;42.664;23.372;2023-08-06T08:29:20;93639.88;;;29.84;44.74
6136;BME280;24008;42.664;23.372;2023-08-06T08:31:47;93637.13;;;29.56;44.46
6136;BME280;24008;42.664;23.372;2023-08-06T08:34:15;93633.78;;;29.51;45.69
6136;BME280;24008;42.664;23.372;2023-08-06T08:36:42;93651.91;;;30.08;43.31
6136;BME280;24008;42.664;23.372;2023-08-06T08:39:12;93511.38;;;30.27;41.00
6136;BME280;24008;42.664;23.372;2023-08-06T08:41:39;93600.78;;;31.24;39.60
6136;BME280;24008;42.664;23.372;2023-08-06T08:44:08;93617.91;;;31.13;41.77
6136;BME280;24008;42.664;23.372;2023-08-06T08:46:38;93616.34;;;31.62;40.93
6136;BME280;24008;42.664;23.372;2023-08-06T08:49:05;93618.06;;;31.80;39.75
6136;BME280;24008;42.664;23.372;2023-08-06T08:51:33;93622.63;;;32.33;38.69
6136;BME280;24008;42.664;23.372;2023-08-06T08:54:02;93620.94;;;32.14;38.36
6136;BME280;24008;42.664;23.372;2023-08-06T08:56:30;93576.94;;;32.41;38.81
6136;BME280;24008;42.664;23.372;2023-08-06T08:58:57;93592.97;;;32.75;37.72
6136;BME280;24008;42.664;23.372;2023-08-06T09:01:25;93586.59;;;32.85;37.61
6136;BME280;24008;42.664;23.372;2023-08-06T09:03:56;93624.31;;;33.47;37.25
6136;BME280;24008;42.664;23.372;2023-08-06T09:06:25;93592.78;;;33.20;37.43
6136;BME280;24008;42.664;23.372;2023-08-06T09:08:57;93613.22;;;33.37;36.76
6136;BME280;24008;42.664;23.372;2023-08-06T09:11:27;93593.13;;;33.27;37.22
6136;BME280;24008;42.664;23.372;2023-08-06T09:14:05;93614.63;;;33.34;37.51
6136;BME280;24008;42.664;23.372;2023-08-06T09:16:34;93541.69;;;32.63;38.00
6136;BME280;24008;42.664;23.372;2023-08-06T09:19:08;93600.78;;;33.29;37.94
6136;BME280;24008;42.664;23.372;2023-08-06T09:21:37;93597.34;;;32.80;37.46
6136;BME280;24008;42.664;23.372;2023-08-06T09:24:07;93582.75;;;31.76;39.46
6136;BME280;24008;42.664;23.372;2023-08-06T09:26:36;93597.91;;;31.34;40.97
6136;BME280;24008;42.664;23.372;2023-08-06T09:29:05;93553.63;;;31.54;41.35
6136;BME280;24008;42.664;23.372;2023-08-06T09:31:32;93588.97;;;32.25;38.11
6136;BME280;24008;42.664;23.372;2023-08-06T09:34:00;93591.53;;;31.85;38.27
6136;BME280;24008;42.664;23.372;2023-08-06T09:36:28;93581.53;;;31.10;39.73
6136;BME280;24008;42.664;23.372;2023-08-06T09:38:55;93556.50;;;30.80;41.26
6136;BME280;24008;42.664;23.372;2023-08-06T09:41:26;93569.75;;;31.30;39.05
6136;BME280;24008;42.664;23.372;2023-08-06T09:43:54;93545.41;;;31.69;37.08
6136;BME280;24008;42.664;23.372;2023-08-06T09:46:20;93568.13;;;31.56;37.90
6136;BME280;24008;42.664;23.372;2023-08-06T09:48:48;93567.78;;;31.35;39.17
6136;BME280;24008;42.664;23.372;2023-08-06T09:51:15;93559.13;;;31.79;38.35
6136;BME280;24008;42.664;23.372;2023-08-06T09:53:45;93578.59;;;31.83;36.82
6136;BME280;24008;42.664;23.372;2023-08-06T09:56:13;93597.16;;;31.20;37.30
6136;BME280;24008;42.664;23.372;2023-08-06T09:58:42;93591.66;;;30.48;38.76
6136;BME280;24008;42.664;23.372;2023-08-06T10:01:08;93402.69;;;28.59;41.06
6136;BME280;24008;42.664;23.372;2023-08-06T10:03:39;93557.66;;;28.93;41.31
6136;BME280;24008;42.664;23.372;2023-08-06T10:06:07;93592.97;;;28.63;42.97
6136;BME280;24008;42.664;23.372;2023-08-06T10:08:34;93571.88;;;28.44;44.15
6136;BME280;24008;42.664;23.372;2023-08-06T10:11:03;93600.91;;;28.34;42.34
6136;BME280;24008;42.664;23.372;2023-08-06T10:13:32;93573.72;;;28.15;43.52
6136;BME280;24008;42.664;23.372;2023-08-06T10:16:00;93531.03;;;27.75;42.85
6136;BME280;24008;42.664;23.372;2023-08-06T10:18:27;93596.03;;;28.22;43.61
6136;BME280;24008;42.664;23.372;2023-08-06T10:20:54;93568.63;;;28.28;43.71
6136;BME280;24008;42.664;23.372;2023-08-06T10:23:33;93519.81;;;27.93;43.76
6136;BME280;24008;42.664;23.372;2023-08-06T10:26:00;93593.91;;;28.24;43.70
6136;BME280;24008;42.664;23.372;2023-08-06T10:28:36;93591.63;;;28.13;44.64
6136;BME280;24008;42.664;23.372;2023-08-06T10:31:03;93586.44;;;28.03;44.84
6136;BME280;24008;42.664;23.372;2023-08-06T10:33:41;93585.72;;;28.26;44.17
6136;BME280;24008;42.664;23.372;2023-08-06T10:36:09;93598.81;;;28.31;44.20
6136;BME280;24008;42.664;23.372;2023-08-06T10:38:44;93601.03;;;28.14;44.20
6136;BME280;24008;42.664;23.372;2023-08-06T10:41:15;93597.59;;;27.89;44.93
6136;BME280;24008;42.664;23.372;2023-08-06T10:43:47;93451.75;;;26.61;45.47
6136;BME280;24008;42.664;23.372;2023-08-06T10:46:23;93610.53;;;27.37;46.83
6136;BME280;24008;42.664;23.372;2023-08-06T10:48:50;93618.28;;;27.08;47.41
6136;BME280;24008;42.664;23.372;2023-08-06T10:51:17;93562.66;;;26.51;47.73
6136;BME280;24008;42.664;23.372;2023-08-06T10:53:45;93564.81;;;26.29;48.27
6136;BME280;24008;42.664;23.372;2023-08-06T10:56:13;93628.69;;;26.53;48.83
6136;BME280;24008;42.664;23.372;2023-08-06T10:58:40;93624.78;;;26.41;49.05
6136;BME280;24008;42.664;23.372;2023-08-06T11:01:08;93586.31;;;25.96;48.81
6136;BME280;24008;42.664;23.372;2023-08-06T11:03:36;93577.66;;;25.75;49.14
6136;BME280;24008;42.664;23.372;2023-08-06T11:06:03;93573.75;;;25.67;49.68
6136;BME280;24008;42.664;23.372;2023-08-06T11:08:33;93627.94;;;26.02;50.25
6136;BME280;24008;42.664;23.372;2023-08-06T11:11:08;93639.69;;;26.10;50.14
6136;BME280;24008;42.664;23.372;2023-08-06T11:13:44;93634.97;;;26.27;50.29
6136;BME280;24008;42.664;23.372;2023-08-06T11:16:16;93628.09;;;26.77;49.41
6136;BME280;24008;42.664;23.372;2023-08-06T11:18:44;93578.66;;;27.14;47.90
6136;BME280;24008;42.664;23.372;2023-08-06T11:21:11;93631.59;;;28.05;46.23
6136;BME280;24008;42.664;23.372;2023-08-06T11:23:39;93610.75;;;28.47;45.73
6136;BME280;24008;42.664;23.372;2023-08-06T11:26:05;93654.94;;;28.98;43.98
6136;BME280;24008;42.664;23.372;2023-08-06T11:28:32;93657.00;;;29.01;44.02
6136;BME280;24008;42.664;23.372;2023-08-06T11:30:59;93672.03;;;28.72;42.63
6136;BME280;24008;42.664;23.372;2023-08-06T11:33:29;93618.03;;;27.92;42.92
6136;BME280;24008;42.664;23.372;2023-08-06T11:35:57;93667.63;;;27.60;44.86
6136;BME280;24008;42.664;23.372;2023-08-06T11:38:25;93655.56;;;27.00;49.47
6136;BME280;24008;42.664;23.372;2023-08-06T11:40:51;93662.78;;;26.28;53.71
6136;BME280;24008;42.664;23.372;2023-08-06T11:43:19;93642.81;;;25.61;57.42
6136;BME280;24008;42.664;23.372;2023-08-06T11:45:46;93656.66;;;25.52;59.44
6136;BME280;24008;42.664;23.372;2023-08-06T11:48:13;93630.91;;;25.13;60.73
6136;BME280;24008;42.664;23.372;2023-08-06T11:50:41;93647.94;;;25.26;59.31
6136;BME280;24008;42.664;23.372;2023-08-06T11:53:12;93623.34;;;25.11;60.58
6136;BME280;24008;42.664;23.372;2023-08-06T11:55:39;93484.69;;;24.14;60.65
6136;BME280;24008;42.664;23.372;2023-08-06T11:58:05;93651.03;;;25.12;62.25
6136;BME280;24008;42.664;23.372;2023-08-06T12:00:32;93567.19;;;24.62;61.59
6136;BME280;24008;42.664;23.372;2023-08-06T12:02:59;93429.88;;;23.61;61.16
6136;BME280;24008;42.664;23.372;2023-08-06T12:05:29;93622.56;;;25.16;60.44
6136;BME280;24008;42.664;23.372;2023-08-06T12:08:00;93515.75;;;24.77;59.04
6136;BME280;24008;42.664;23.372;2023-08-06T12:10:29;93603.84;;;25.80;56.61
6136;BME280;24008;42.664;23.372;2023-08-06T12:12:56;93609.09;;;26.31;55.63
6136;BME280;24008;42.664;23.372;2023-08-06T12:15:23;93631.47;;;26.93;52.88
6136;BME280;24008;42.664;23.372;2023-08-06T12:17:50;93637.94;;;27.15;50.42
6136;BME280;24008;42.664;23.372;2023-08-06T12:20:17;93629.97;;;27.31;50.01
6136;BME280;24008;42.664;23.372;2023-08-06T12:22:44;93627.94;;;27.17;49.85
6136;BME280;24008;42.664;23.372;2023-08-06T12:25:12;93598.25;;;26.68;50.69
6136;BME280;24008;42.664;23.372;2023-08-06T12:27:41;93624.97;;;26.60;51.36
6136;BME280;24008;42.664;23.372;2023-08-06T12:30:08;93629.69;;;26.58;52.44
6136;BME280;24008;42.664;23.372;2023-08-06T12:32:35;93607.69;;;26.64;51.12
6136;BME280;24008;42.664;23.372;2023-08-06T12:35:02;93624.94;;;26.75;49.54
6136;BME280;24008;42.664;23.372;2023-08-06T12:37:30;93624.41;;;26.73;50.23
6136;BME280;24008;42.664;23.372;2023-08-06T12:39:56;93625.47;;;26.72;48.73
6136;BME280;24008;42.664;23.372;2023-08-06T12:42:25;93624.47;;;26.68;47.78
6136;BME280;24008;42.664;23.372;2023-08-06T12:44:51;93585.22;;;26.22;48.51
6136;BME280;24008;42.664;23.372;2023-08-06T12:47:18;93586.78;;;26.23;47.82
6136;BME280;24008;42.664;23.372;2023-08-06T12:49:46;93625.28;;;26.38;49.44
6136;BME280;24008;42.664;23.372;2023-08-06T12:52:13;93616.91;;;26.36;50.06
6136;BME280;24008;42.664;23.372;2023-08-06T12:54:41;93579.22;;;26.06;50.89
6136;BME280;24008;42.664;23.372;2023-08-06T12:57:07;93619.28;;;26.37;50.71